This is the latest recevied weather packets stored in our database for station/object TA1FM. If no packets are shown the sender has not sent any weather packets the latest 10 day(s).
| Time | Temp. | Humidity | Pressure | Rain* | Wind** | Luminosity | Snow |
|---|---|---|---|---|---|---|---|
| 1778076796 | 19.44° C | 45% | 912 hPa | - | - | - | - |
| 1778075896 | 19.44° C | 46% | 911.9 hPa | - | - | - | - |
| 1778074996 | 19.44° C | 45% | 912.1 hPa | - | - | - | - |
| 1778074096 | 11.11° C | 44% | 899.9 hPa | - | - | - | - |
| 1778073195 | 19.44° C | 44% | 912.1 hPa | - | - | - | - |
| 1778072295 | 19.44° C | 43% | 912.3 hPa | - | - | - | - |
| 1778071395 | 19.44° C | 44% | 912.3 hPa | - | - | - | - |
| 1778070495 | 19.44° C | 44% | 912.3 hPa | - | - | - | - |
| 1778069595 | 18.89° C | 45% | 912.3 hPa | - | - | - | - |
| 1778068695 | 18.89° C | 47% | 912.5 hPa | - | - | - | - |
| 1778067794 | 18.33° C | 48% | 912.5 hPa | - | - | - | - |
| 1778066894 | 18.33° C | 49% | 912.5 hPa | - | - | - | - |
| 1778065994 | 17.78° C | 48% | 912.6 hPa | - | - | - | - |
| 1778064194 | 17.78° C | 48% | 912.6 hPa | - | - | - | - |
| 1778063294 | 17.78° C | 48% | 912.4 hPa | - | - | - | - |
| 1778062394 | 17.78° C | 48% | 912.6 hPa | - | - | - | - |
| 1778061495 | 17.22° C | 49% | 912.5 hPa | - | - | - | - |
| 1778060593 | 17.22° C | 49% | 912.5 hPa | - | - | - | - |
| 1778059693 | 16.67° C | 48% | 912.6 hPa | - | - | - | - |
| 1778058793 | 6.67° C | 49% | 898.3 hPa | - | - | - | - |
| 1778057893 | 16.11° C | 50% | 912.5 hPa | - | - | - | - |
| 1778056993 | 16.11° C | 51% | 912.4 hPa | - | - | - | - |
| 1778056092 | 15.56° C | 52% | 912.5 hPa | - | - | - | - |
| 1778055192 | 15° C | 52% | 912.3 hPa | - | - | - | - |
| 1778054292 | 15° C | 53% | 912.3 hPa | - | - | - | - |
* Rain since midnight (hover to see other rain measurements)
** Current wind speed in m/s (hover to see current wind gust speed)